Forside
METAR-TAF:

METAR-TAF

Lufthavne :

Olieplatform

J6-a, Holland

Breddekreds: 53-49-27N, længdekreds: 2-56-43E, højde: 34 m

Aktuelle vejr

Denne rapport blev lavet for 22 minutter siden, kl. 01:55 UTC
Vind 19 kt fra vestnordvest
Temperatur 12°C
Fugtighed 82%
Tryk 1031 hPa
Sigt 10 km eller mere

METAR: EHJA 250155Z AUTO 30019KT 9999 FEW037/// SCT044/// BKN048/// 12/09 Q1031

Tid: 04:17 (02:17 UTC)


TAF: fraværende

Vejrobservationer og prognoser fra mere end 4000 lufthavne (METAR og TAF).

De gule og røde prikker repræsenterer de meteorologiske stationer.

Flyt musen over at se navnet på stationen.

Så klik over at se vejr observationer og prognoser.

At skifte det kort: Klik på de grønne knapper med et sort kors for at zoome ind; på den grønne knap med en bindestreg for at zoome ud; eller på de grønne pile for tilstødende kort.


METAR-TAF: